Time;durP1;ratioP1;P1;durP2;ratioP2;P2;SDS_P1;SDS_P2;PMS_P1;PMS_P2;Temp;Humidity;BMP_temperature;BMP_pressure;BME280_temperature;BME280_humidity;BME280_pressure;Samples;Min_cycle;Max_cycle;Signal;HPM_P1;HPM_P2
2023/04/29 00:00:30;;;;;;;4.30;2.85;;;;;;;;;;7371935;19;20725;-70
2023/04/29 00:02:56;;;;;;;4.30;2.75;;;;;;;;;;7374242;19;20087;-70
2023/04/29 00:05:21;;;;;;;6.22;3.00;;;;;;;;;;7373453;19;20010;-70
2023/04/29 00:07:46;;;;;;;4.65;2.78;;;;;;;;;;7371094;19;20069;-70
2023/04/29 00:10:13;;;;;;;4.80;3.17;;;;;;;;;;7395565;19;20092;-70
2023/04/29 00:12:40;;;;;;;4.78;2.78;;;;;;;;;;7370802;19;20062;-70
2023/04/29 00:15:06;;;;;;;5.35;3.28;;;;;;;;;;7370068;19;20021;-70
2023/04/29 00:17:31;;;;;;;5.30;3.15;;;;;;;;;;7372369;19;20013;-70
2023/04/29 00:19:56;;;;;;;5.50;3.22;;;;;;;;;;7371333;19;20052;-70
2023/04/29 00:22:23;;;;;;;6.50;3.20;;;;;;;;;;7393745;19;19998;-71
2023/04/29 00:24:49;;;;;;;4.88;3.08;;;;;;;;;;7370464;19;20006;-70
2023/04/29 00:27:15;;;;;;;4.47;2.70;;;;;;;;;;7368347;19;20115;-71
2023/04/29 00:29:41;;;;;;;5.38;3.50;;;;;;;;;;7370692;19;20400;-70
2023/04/29 00:32:06;;;;;;;5.80;3.33;;;;;;;;;;7369846;19;20089;-71
2023/04/29 00:34:32;;;;;;;5.40;3.03;;;;;;;;;;7372344;19;20002;-71
2023/04/29 00:36:57;;;;;;;7.55;3.42;;;;;;;;;;7394107;19;20011;-71
2023/04/29 00:39:22;;;;;;;6.13;2.90;;;;;;;;;;7370150;19;20010;-71
2023/04/29 00:41:48;;;;;;;6.07;3.00;;;;;;;;;;7370330;19;20422;-70
2023/04/29 00:44:13;;;;;;;5.32;2.75;;;;;;;;;;7369691;19;20013;-70
2023/04/29 00:46:38;;;;;;;5.80;2.95;;;;;;;;;;7368383;19;20032;-70
2023/04/29 00:49:04;;;;;;;4.10;2.80;;;;;;;;;;7391700;19;20003;-71
2023/04/29 00:51:29;;;;;;;4.90;3.03;;;;;;;;;;7366148;19;20010;-70
2023/04/29 00:53:55;;;;;;;4.45;3.00;;;;;;;;;;7369210;19;20011;-70
2023/04/29 00:56:21;;;;;;;5.55;2.97;;;;;;;;;;7367655;19;20006;-70
2023/04/29 00:58:49;;;;;;;7.00;3.25;;;;;;;;;;7374913;19;20015;-71
2023/04/29 01:01:20;;;;;;;5.72;3.65;;;;;;;;;;7395818;19;20033;-70
2023/04/29 01:03:46;;;;;;;5.57;3.67;;;;;;;;;;7369495;19;20057;-70
2023/04/29 01:06:34;;;;;;;7.13;3.40;;;;;;;;;;7368420;19;20481;-70
2023/04/29 01:09:31;;;;;;;5.03;3.58;;;;;;;;;;7369271;19;20361;-70
2023/04/29 01:12:35;;;;;;;5.88;3.63;;;;;;;;;;7367512;19;20006;-70
2023/04/29 01:15:18;;;;;;;7.28;4.00;;;;;;;;;;7368506;19;20066;-70
2023/04/29 01:17:52;;;;;;;7.03;4.10;;;;;;;;;;7370422;19;19998;-70
2023/04/29 01:20:18;;;;;;;5.78;3.60;;;;;;;;;;7370296;19;20002;-70
2023/04/29 01:22:43;;;;;;;6.70;3.78;;;;;;;;;;7368927;19;19999;-70
2023/04/29 01:25:09;;;;;;;5.53;3.78;;;;;;;;;;7391547;19;20020;-70
2023/04/29 01:27:53;;;;;;;7.32;4.10;;;;;;;;;;7367088;19;20386;-70
2023/04/29 01:30:42;;;;;;;6.40;4.05;;;;;;;;;;7367949;19;20475;-70
2023/04/29 01:33:24;;;;;;;6.00;3.95;;;;;;;;;;7367850;19;20011;-70
2023/04/29 01:36:02;;;;;;;5.07;3.70;;;;;;;;;;7368550;19;20020;-70
2023/04/29 01:38:40;;;;;;;5.93;3.60;;;;;;;;;;7367707;19;20009;-70
2023/04/29 01:41:27;;;;;;;6.35;3.58;;;;;;;;;;7367567;19;20725;-70
2023/04/29 01:43:55;;;;;;;6.55;3.22;;;;;;;;;;7368665;19;20029;-70
2023/04/29 01:46:21;;;;;;;4.70;3.08;;;;;;;;;;7390491;19;20015;-70
2023/04/29 01:48:46;;;;;;;4.13;2.63;;;;;;;;;;7367374;19;19999;-71
2023/04/29 01:51:12;;;;;;;4.32;2.53;;;;;;;;;;7367214;19;20023;-70
2023/04/29 01:53:39;;;;;;;4.40;2.60;;;;;;;;;;7375850;19;20445;-70
2023/04/29 01:56:06;;;;;;;5.15;2.55;;;;;;;;;;7379495;19;20010;-71
2023/04/29 01:58:31;;;;;;;5.15;2.30;;;;;;;;;;7373082;19;20263;-70
2023/04/29 02:00:56;;;;;;;6.65;2.60;;;;;;;;;;7394253;19;19995;-70
2023/04/29 02:03:22;;;;;;;4.28;1.92;;;;;;;;;;7370268;19;20496;-70
2023/04/29 02:05:49;;;;;;;5.03;2.30;;;;;;;;;;7369206;19;20006;-70
2023/04/29 02:08:15;;;;;;;3.85;2.25;;;;;;;;;;7363543;19;20083;-70
2023/04/29 02:10:40;;;;;;;4.25;2.65;;;;;;;;;;7369643;19;20456;-70
2023/04/29 02:13:06;;;;;;;4.65;2.78;;;;;;;;;;7388313;19;20009;-70
2023/04/29 02:15:31;;;;;;;4.18;2.58;;;;;;;;;;7366993;19;20007;-70
2023/04/29 02:17:57;;;;;;;4.95;2.50;;;;;;;;;;7366077;19;20007;-70
2023/04/29 02:20:22;;;;;;;3.80;2.35;;;;;;;;;;7369291;19;20015;-70
2023/04/29 02:22:47;;;;;;;4.72;2.33;;;;;;;;;;7367051;19;20091;-70
2023/04/29 02:25:13;;;;;;;4.57;2.13;;;;;;;;;;7387811;19;19995;-70
2023/04/29 02:27:38;;;;;;;4.35;2.47;;;;;;;;;;7364139;19;19998;-70
2023/04/29 02:30:05;;;;;;;4.85;2.30;;;;;;;;;;7368531;19;19995;-70
2023/04/29 02:32:30;;;;;;;2.38;1.88;;;;;;;;;;7368214;19;20010;-70
2023/04/29 02:34:55;;;;;;;5.90;2.20;;;;;;;;;;7368120;19;19998;-70
2023/04/29 02:37:21;;;;;;;5.93;2.60;;;;;;;;;;7386717;19;20066;-70
2023/04/29 02:39:47;;;;;;;3.60;2.40;;;;;;;;;;7368694;19;20014;-70
2023/04/29 02:42:12;;;;;;;6.32;2.50;;;;;;;;;;7367593;19;20410;-70
2023/04/29 02:44:38;;;;;;;3.80;2.53;;;;;;;;;;7366855;19;20039;-70
2023/04/29 02:47:03;;;;;;;4.75;2.47;;;;;;;;;;7364642;19;20002;-70
2023/04/29 02:49:29;;;;;;;4.22;2.38;;;;;;;;;;7366756;19;19994;-71
2023/04/29 02:51:54;;;;;;;3.90;2.40;;;;;;;;;;7390954;19;20054;-70
2023/04/29 02:54:20;;;;;;;4.10;2.30;;;;;;;;;;7365621;19;20069;-70
2023/04/29 02:56:45;;;;;;;4.15;2.35;;;;;;;;;;7365534;19;20003;-70
2023/04/29 02:59:11;;;;;;;3.47;2.40;;;;;;;;;;7370581;19;19998;-70
2023/04/29 03:01:37;;;;;;;3.78;2.00;;;;;;;;;;7380342;19;20010;-71
2023/04/29 03:04:03;;;;;;;4.75;2.38;;;;;;;;;;7402253;19;20024;-70
2023/04/29 03:06:28;;;;;;;4.38;2.20;;;;;;;;;;7370930;19;20007;-70
2023/04/29 03:08:54;;;;;;;4.60;2.38;;;;;;;;;;7365789;19;20062;-70
2023/04/29 03:11:19;;;;;;;4.28;2.25;;;;;;;;;;7365033;19;20002;-70
2023/04/29 03:13:45;;;;;;;5.13;2.40;;;;;;;;;;7365409;19;20523;-70
2023/04/29 03:16:13;;;;;;;2.85;1.90;;;;;;;;;;7386281;19;20131;-71
2023/04/29 03:18:38;;;;;;;4.32;1.98;;;;;;;;;;7364554;19;20483;-70
2023/04/29 03:21:03;;;;;;;5.53;2.17;;;;;;;;;;7373637;19;19998;-70
2023/04/29 03:23:29;;;;;;;4.43;2.70;;;;;;;;;;7372909;19;19999;-70
2023/04/29 03:25:54;;;;;;;3.72;2.28;;;;;;;;;;7372341;19;20371;-70
2023/04/29 03:28:20;;;;;;;2.97;2.03;;;;;;;;;;7393057;19;20039;-70
2023/04/29 03:30:45;;;;;;;6.70;2.47;;;;;;;;;;7370209;19;20007;-70
2023/04/29 03:33:10;;;;;;;4.18;2.50;;;;;;;;;;7382290;19;20298;-70
2023/04/29 03:35:36;;;;;;;5.05;3.15;;;;;;;;;;7383744;19;20010;-70
2023/04/29 03:38:01;;;;;;;5.93;3.92;;;;;;;;;;7379631;19;20394;-70
2023/04/29 03:40:26;;;;;;;7.28;4.30;;;;;;;;;;7376874;19;19999;-71
2023/04/29 03:42:52;;;;;;;7.72;4.93;;;;;;;;;;7393665;19;20397;-70
2023/04/29 03:45:17;;;;;;;9.07;4.45;;;;;;;;;;7372078;19;20358;-70
2023/04/29 03:47:43;;;;;;;6.82;4.65;;;;;;;;;;7373534;19;20006;-71
2023/04/29 03:50:08;;;;;;;10.23;4.95;;;;;;;;;;7373521;19;20005;-71
2023/04/29 03:52:36;;;;;;;8.70;5.57;;;;;;;;;;7376546;19;20029;-71
2023/04/29 03:55:02;;;;;;;9.52;5.82;;;;;;;;;;7395708;19;20717;-71
2023/04/29 03:57:27;;;;;;;11.13;5.72;;;;;;;;;;7368930;19;20009;-71
2023/04/29 03:59:53;;;;;;;10.93;6.70;;;;;;;;;;7371757;19;20011;-71
2023/04/29 04:02:18;;;;;;;10.85;6.05;;;;;;;;;;7371138;19;20007;-71
2023/04/29 04:04:44;;;;;;;10.85;6.50;;;;;;;;;;7372543;19;20010;-71
2023/04/29 04:07:10;;;;;;;11.48;6.88;;;;;;;;;;7390221;19;20016;-71
2023/04/29 04:09:36;;;;;;;11.02;7.10;;;;;;;;;;7371437;19;20069;-71
2023/04/29 04:12:01;;;;;;;11.63;7.20;;;;;;;;;;7368891;19;20006;-71
2023/04/29 04:14:27;;;;;;;12.00;7.63;;;;;;;;;;7369382;19;20014;-71
2023/04/29 04:16:53;;;;;;;15.05;8.07;;;;;;;;;;7368130;19;20006;-71
2023/04/29 04:19:19;;;;;;;11.82;7.20;;;;;;;;;;7391462;19;20002;-71
2023/04/29 04:21:44;;;;;;;15.20;8.30;;;;;;;;;;7371180;19;20006;-71
2023/04/29 04:24:09;;;;;;;12.15;8.48;;;;;;;;;;7371503;19;20083;-69
2023/04/29 04:26:35;;;;;;;12.93;8.25;;;;;;;;;;7368856;19;20476;-70
2023/04/29 04:29:00;;;;;;;14.10;8.48;;;;;;;;;;7370930;19;19998;-70
2023/04/29 04:31:25;;;;;;;13.45;8.88;;;;;;;;;;7366466;19;20003;-70
2023/04/29 04:33:51;;;;;;;14.27;8.95;;;;;;;;;;7392045;19;20007;-70
2023/04/29 04:36:16;;;;;;;16.17;9.45;;;;;;;;;;7370537;19;20009;-70
2023/04/29 04:38:41;;;;;;;13.70;8.85;;;;;;;;;;7371072;19;20006;-70
2023/04/29 04:41:07;;;;;;;13.32;8.82;;;;;;;;;;7371193;19;20075;-70
2023/04/29 04:43:32;;;;;;;16.33;9.43;;;;;;;;;;7373229;19;20003;-70
2023/04/29 04:45:57;;;;;;;16.23;9.63;;;;;;;;;;7396313;19;20006;-70
2023/04/29 04:48:23;;;;;;;16.48;8.88;;;;;;;;;;7371140;19;20342;-70
2023/04/29 04:50:48;;;;;;;14.25;9.32;;;;;;;;;;7369969;19;20012;-70
2023/04/29 04:53:13;;;;;;;15.40;9.32;;;;;;;;;;7371171;19;20558;-70
2023/04/29 04:55:39;;;;;;;14.63;9.80;;;;;;;;;;7370687;19;20026;-70
2023/04/29 04:58:04;;;;;;;14.80;10.23;;;;;;;;;;7388521;19;19995;-71
2023/04/29 05:00:29;;;;;;;13.65;9.27;;;;;;;;;;7369190;19;20069;-70
2023/04/29 05:02:55;;;;;;;17.90;9.85;;;;;;;;;;7369192;19;20073;-70
2023/04/29 05:05:20;;;;;;;15.57;9.35;;;;;;;;;;7371450;19;20006;-70
2023/04/29 05:07:46;;;;;;;15.20;9.45;;;;;;;;;;7368200;19;20461;-70
2023/04/29 05:10:11;;;;;;;14.65;9.50;;;;;;;;;;7392993;19;20063;-70
2023/04/29 05:12:36;;;;;;;14.82;9.60;;;;;;;;;;7370121;19;20005;-70
2023/04/29 05:15:03;;;;;;;13.70;8.35;;;;;;;;;;7371829;19;20495;-70
2023/04/29 05:17:28;;;;;;;15.68;9.77;;;;;;;;;;7368922;19;20002;-70
2023/04/29 05:19:54;;;;;;;17.13;10.18;;;;;;;;;;7370532;19;20029;-70
2023/04/29 05:22:19;;;;;;;16.67;10.23;;;;;;;;;;7393726;19;20457;-70
2023/04/29 05:24:47;;;;;;;18.05;9.73;;;;;;;;;;7370776;19;20362;-70
2023/04/29 05:27:12;;;;;;;19.65;9.60;;;;;;;;;;7369419;19;20096;-70
2023/04/29 05:29:37;;;;;;;14.50;8.85;;;;;;;;;;7371484;19;20002;-70
2023/04/29 05:32:03;;;;;;;15.18;9.05;;;;;;;;;;7373116;19;20023;-69
2023/04/29 05:34:28;;;;;;;15.35;8.98;;;;;;;;;;7369351;19;19991;-70
2023/04/29 05:36:54;;;;;;;13.95;8.35;;;;;;;;;;7389229;19;19998;-70
2023/04/29 05:39:19;;;;;;;13.68;8.40;;;;;;;;;;7370456;19;20006;-70
2023/04/29 05:41:45;;;;;;;17.52;9.40;;;;;;;;;;7369144;19;20067;-70
2023/04/29 05:44:10;;;;;;;14.90;8.90;;;;;;;;;;7369532;19;19999;-70
2023/04/29 05:46:36;;;;;;;13.85;8.50;;;;;;;;;;7367169;19;20006;-70
2023/04/29 05:49:01;;;;;;;13.32;7.97;;;;;;;;;;7400058;19;20020;-70
2023/04/29 05:51:27;;;;;;;15.30;8.68;;;;;;;;;;7380240;19;20006;-71
2023/04/29 05:53:55;;;;;;;13.05;7.40;;;;;;;;;;7378437;19;20006;-70
2023/04/29 05:56:21;;;;;;;14.45;7.65;;;;;;;;;;7366986;19;20003;-70
2023/04/29 05:58:46;;;;;;;13.95;7.97;;;;;;;;;;7368107;19;20028;-70
2023/04/29 06:01:12;;;;;;;12.73;7.43;;;;;;;;;;7388361;19;20043;-70
2023/04/29 06:03:37;;;;;;;13.90;6.93;;;;;;;;;;7367557;19;20465;-70
2023/04/29 06:06:02;;;;;;;13.25;6.95;;;;;;;;;;7366931;19;19998;-70
2023/04/29 06:08:28;;;;;;;12.40;6.60;;;;;;;;;;7367242;19;20006;-70
2023/04/29 06:10:53;;;;;;;13.90;7.10;;;;;;;;;;7369596;19;20586;-70
2023/04/29 06:13:19;;;;;;;9.05;5.28;;;;;;;;;;7388541;19;20025;-70
2023/04/29 06:15:44;;;;;;;13.82;6.90;;;;;;;;;;7366348;19;20066;-70
2023/04/29 06:18:09;;;;;;;10.10;5.57;;;;;;;;;;7365916;19;20412;-70
2023/04/29 06:20:35;;;;;;;10.85;5.30;;;;;;;;;;7367055;19;20010;-70
2023/04/29 06:23:00;;;;;;;10.98;5.82;;;;;;;;;;7367445;19;20031;-70
2023/04/29 06:25:25;;;;;;;11.40;5.65;;;;;;;;;;7366390;19;20452;-71
2023/04/29 06:27:51;;;;;;;11.27;5.57;;;;;;;;;;7389502;19;20002;-70
2023/04/29 06:30:16;;;;;;;8.25;4.95;;;;;;;;;;7365288;19;20343;-70
2023/04/29 06:32:41;;;;;;;9.45;5.65;;;;;;;;;;7366807;19;20009;-70
2023/04/29 06:35:07;;;;;;;10.13;5.60;;;;;;;;;;7368564;19;20479;-70
2023/04/29 06:37:33;;;;;;;7.90;4.88;;;;;;;;;;7366842;19;20002;-71
2023/04/29 06:39:58;;;;;;;12.50;5.20;;;;;;;;;;7391224;19;20023;-70
2023/04/29 06:42:23;;;;;;;8.43;4.97;;;;;;;;;;7366304;19;20002;-70
2023/04/29 06:44:49;;;;;;;10.73;4.85;;;;;;;;;;7366385;19;20017;-70
2023/04/29 06:47:14;;;;;;;11.45;6.13;;;;;;;;;;7365451;19;20464;-70
2023/04/29 06:49:39;;;;;;;8.75;5.10;;;;;;;;;;7365636;19;20358;-70
2023/04/29 06:52:05;;;;;;;7.57;4.45;;;;;;;;;;7387166;19;19995;-70
2023/04/29 06:54:31;;;;;;;7.88;4.18;;;;;;;;;;7365329;19;20294;-70
2023/04/29 06:56:57;;;;;;;7.72;4.30;;;;;;;;;;7364075;19;20019;-70
2023/04/29 06:59:22;;;;;;;6.57;3.95;;;;;;;;;;7366420;19;20175;-70
2023/04/29 07:01:47;;;;;;;8.50;4.85;;;;;;;;;;7365357;19;19994;-70
2023/04/29 07:04:13;;;;;;;7.72;4.47;;;;;;;;;;7388827;19;19991;-70
2023/04/29 07:06:38;;;;;;;8.70;4.05;;;;;;;;;;7364065;19;20006;-70
2023/04/29 07:09:03;;;;;;;9.23;4.18;;;;;;;;;;7366521;19;20017;-70
2023/04/29 07:11:29;;;;;;;9.55;4.82;;;;;;;;;;7366238;19;20349;-70
2023/04/29 07:13:54;;;;;;;7.68;4.30;;;;;;;;;;7365990;19;20003;-70
2023/04/29 07:16:20;;;;;;;7.40;4.63;;;;;;;;;;7391110;19;20003;-70
2023/04/29 07:18:47;;;;;;;7.40;4.63;;;;;;;;;;7378703;19;20338;-70
2023/04/29 07:21:12;;;;;;;9.88;5.22;;;;;;;;;;7369748;19;20006;-70
2023/04/29 07:23:38;;;;;;;10.48;4.72;;;;;;;;;;7377575;19;20006;-70
2023/04/29 07:26:14;;;;;;;10.57;5.25;;;;;;;;;;7365941;19;20003;-70
2023/04/29 07:28:40;;;;;;;9.45;5.00;;;;;;;;;;7365396;19;20366;-71
2023/04/29 07:31:06;;;;;;;9.70;4.93;;;;;;;;;;7390679;19;19999;-70
2023/04/29 07:33:32;;;;;;;9.50;4.90;;;;;;;;;;7376113;19;20007;-70
2023/04/29 07:35:58;;;;;;;9.45;5.00;;;;;;;;;;7374303;19;19995;-70
2023/04/29 07:38:23;;;;;;;9.48;5.30;;;;;;;;;;7366852;19;20006;-70
2023/04/29 07:40:48;;;;;;;10.40;6.75;;;;;;;;;;7364683;19;20007;-70
2023/04/29 07:43:14;;;;;;;10.73;6.32;;;;;;;;;;7389902;19;19990;-70
2023/04/29 07:45:40;;;;;;;11.65;6.47;;;;;;;;;;7363282;19;20019;-70
2023/04/29 07:48:05;;;;;;;10.70;5.60;;;;;;;;;;7363009;19;20435;-70
2023/04/29 07:50:35;;;;;;;9.10;5.85;;;;;;;;;;7363287;19;20028;-70
2023/04/29 07:53:01;;;;;;;9.80;5.35;;;;;;;;;;7363837;19;20023;-70
2023/04/29 07:55:28;;;;;;;10.63;6.05;;;;;;;;;;7363751;19;20090;-70
2023/04/29 07:57:54;;;;;;;11.52;6.20;;;;;;;;;;7382607;19;20003;-70
2023/04/29 08:00:19;;;;;;;10.15;5.40;;;;;;;;;;7363440;19;20037;-70
2023/04/29 08:02:45;;;;;;;9.07;5.53;;;;;;;;;;7363541;19;20028;-70
2023/04/29 08:05:10;;;;;;;10.02;6.18;;;;;;;;;;7365249;19;20035;-70
2023/04/29 08:07:35;;;;;;;8.57;5.47;;;;;;;;;;7368542;19;20019;-70
2023/04/29 08:10:00;;;;;;;9.65;5.80;;;;;;;;;;7391818;19;20050;-70
2023/04/29 08:12:26;;;;;;;9.05;5.45;;;;;;;;;;7369985;19;20402;-70
2023/04/29 08:14:51;;;;;;;8.60;5.20;;;;;;;;;;7370313;19;20003;-70
2023/04/29 08:17:16;;;;;;;10.57;5.97;;;;;;;;;;7369263;19;20010;-70
2023/04/29 08:19:42;;;;;;;9.93;5.47;;;;;;;;;;7371286;19;20004;-70
2023/04/29 08:22:10;;;;;;;9.63;5.55;;;;;;;;;;7391602;19;19990;-70
2023/04/29 08:24:35;;;;;;;8.82;5.25;;;;;;;;;;7370173;19;20028;-70
2023/04/29 08:27:00;;;;;;;9.88;4.90;;;;;;;;;;7378092;19;20003;-70
2023/04/29 08:29:26;;;;;;;10.13;5.13;;;;;;;;;;7372602;19;19998;-71
2023/04/29 08:31:51;;;;;;;9.48;5.28;;;;;;;;;;7367530;19;20007;-70
2023/04/29 08:34:16;;;;;;;9.93;5.18;;;;;;;;;;7391759;19;20334;-70
2023/04/29 08:36:42;;;;;;;7.55;4.72;;;;;;;;;;7367553;19;20038;-71
2023/04/29 08:39:07;;;;;;;9.45;4.70;;;;;;;;;;7369945;19;20017;-70
2023/04/29 08:41:33;;;;;;;9.45;4.97;;;;;;;;;;7373869;19;20310;-69
2023/04/29 08:43:59;;;;;;;8.65;4.55;;;;;;;;;;7372194;19;20009;-70
2023/04/29 08:46:25;;;;;;;11.90;4.70;;;;;;;;;;7368644;19;19998;-70
2023/04/29 08:48:52;;;;;;;7.72;4.88;;;;;;;;;;7391120;19;20461;-70
2023/04/29 08:51:17;;;;;;;8.60;5.20;;;;;;;;;;7367462;19;20019;-70
2023/04/29 08:53:42;;;;;;;11.57;6.43;;;;;;;;;;7371486;19;19999;-70
2023/04/29 08:56:14;;;;;;;9.32;5.15;;;;;;;;;;7373381;19;20453;-70
2023/04/29 08:58:41;;;;;;;9.13;5.97;;;;;;;;;;7374245;19;20005;-70
2023/04/29 09:01:08;;;;;;;8.98;4.90;;;;;;;;;;7394694;19;20453;-69
2023/04/29 09:03:45;;;;;;;9.55;5.10;;;;;;;;;;7371913;19;20006;-69
2023/04/29 09:06:11;;;;;;;10.57;5.25;;;;;;;;;;7371882;19;20006;-70
2023/04/29 09:08:38;;;;;;;9.68;4.88;;;;;;;;;;7369291;19;19998;-70
2023/04/29 09:11:04;;;;;;;9.23;5.45;;;;;;;;;;7371491;19;20036;-70
2023/04/29 09:13:31;;;;;;;9.57;5.68;;;;;;;;;;7369542;19;20483;-70
2023/04/29 09:15:57;;;;;;;10.20;5.60;;;;;;;;;;7392519;19;20002;-71
2023/04/29 09:18:41;;;;;;;9.45;5.40;;;;;;;;;;7368281;19;20010;-71
2023/04/29 09:21:15;;;;;;;8.40;5.10;;;;;;;;;;7374699;19;20007;-71
2023/04/29 09:23:41;;;;;;;9.23;5.43;;;;;;;;;;7370846;19;20008;-69
2023/04/29 09:26:06;;;;;;;8.95;5.38;;;;;;;;;;7371129;19;20013;-70
2023/04/29 09:28:32;;;;;;;12.40;4.78;;;;;;;;;;7370069;19;19990;-71
2023/04/29 09:30:58;;;;;;;8.63;3.90;;;;;;;;;;7390619;19;20005;-68
2023/04/29 09:33:27;;;;;;;6.68;4.07;;;;;;;;;;7369982;19;20458;-69
2023/04/29 09:35:53;;;;;;;8.45;3.70;;;;;;;;;;7368895;19;20076;-69
2023/04/29 09:38:18;;;;;;;8.20;4.03;;;;;;;;;;7367299;19;20476;-70
2023/04/29 09:40:43;;;;;;;6.47;3.58;;;;;;;;;;7370014;19;20014;-70
2023/04/29 09:43:17;;;;;;;6.82;3.30;;;;;;;;;;7390655;19;20108;-70
2023/04/29 09:45:47;;;;;;;7.40;3.67;;;;;;;;;;7369191;19;20002;-70
2023/04/29 09:48:14;;;;;;;9.73;4.20;;;;;;;;;;7375290;19;20025;-70
2023/04/29 09:50:41;;;;;;;5.45;3.40;;;;;;;;;;7376180;19;20032;-70
2023/04/29 09:53:08;;;;;;;5.75;3.47;;;;;;;;;;7370477;19;19999;-70
2023/04/29 09:55:57;;;;;;;8.73;3.88;;;;;;;;;;7370203;19;20005;-70
2023/04/29 09:58:35;;;;;;;10.05;3.78;;;;;;;;;;7380619;19;19995;-69
2023/04/29 10:01:01;;;;;;;5.80;3.22;;;;;;;;;;7390169;19;20096;-71
2023/04/29 10:03:35;;;;;;;6.53;3.00;;;;;;;;;;7367769;19;20398;-70
2023/04/29 10:06:02;;;;;;;6.45;3.33;;;;;;;;;;7368559;19;20002;-70
2023/04/29 10:08:29;;;;;;;7.45;4.10;;;;;;;;;;7367882;19;20115;-70
2023/04/29 10:11:00;;;;;;;6.63;3.58;;;;;;;;;;7367578;19;20003;-71
2023/04/29 10:13:27;;;;;;;6.78;3.45;;;;;;;;;;7370878;19;20356;-69
2023/04/29 10:16:05;;;;;;;6.32;3.50;;;;;;;;;;7390413;19;20393;-70
2023/04/29 10:18:40;;;;;;;6.47;3.60;;;;;;;;;;7366858;19;20016;-70
2023/04/29 10:21:08;;;;;;;9.25;3.50;;;;;;;;;;7370876;19;20005;-70
2023/04/29 10:23:34;;;;;;;5.43;3.25;;;;;;;;;;7366641;19;19995;-70
2023/04/29 10:26:02;;;;;;;6.20;3.58;;;;;;;;;;7367967;19;20002;-70
2023/04/29 10:28:31;;;;;;;5.22;2.90;;;;;;;;;;7366852;19;20007;-70
2023/04/29 10:31:02;;;;;;;6.38;3.08;;;;;;;;;;7386634;19;20456;-71
2023/04/29 10:33:30;;;;;;;7.28;3.40;;;;;;;;;;7365960;19;20006;-70
2023/04/29 10:35:55;;;;;;;6.60;3.38;;;;;;;;;;7367566;19;20002;-70
2023/04/29 10:38:29;;;;;;;5.97;3.20;;;;;;;;;;7367290;19;19998;-70
2023/04/29 10:40:56;;;;;;;5.78;3.20;;;;;;;;;;7370238;19;20002;-69
2023/04/29 10:43:26;;;;;;;5.68;3.00;;;;;;;;;;7391363;19;20369;-70
2023/04/29 10:46:15;;;;;;;6.30;3.65;;;;;;;;;;7367812;19;20247;-70
2023/04/29 10:48:42;;;;;;;5.60;3.05;;;;;;;;;;7366029;19;20002;-70
2023/04/29 10:51:08;;;;;;;7.13;3.22;;;;;;;;;;7366303;19;20026;-71
2023/04/29 10:53:34;;;;;;;6.35;3.08;;;;;;;;;;7367988;19;20015;-70
2023/04/29 10:56:05;;;;;;;8.13;4.10;;;;;;;;;;7364372;19;20385;-72
2023/04/29 10:58:32;;;;;;;5.20;3.15;;;;;;;;;;7365560;19;20002;-70
2023/04/29 11:00:58;;;;;;;4.78;2.67;;;;;;;;;;7387996;19;20056;-70
2023/04/29 11:03:47;;;;;;;5.05;2.90;;;;;;;;;;7366062;19;20055;-70
2023/04/29 11:06:13;;;;;;;5.93;3.28;;;;;;;;;;7366639;19;20095;-71
2023/04/29 11:08:42;;;;;;;9.52;5.82;;;;;;;;;;7367046;19;20006;-70
2023/04/29 11:11:08;;;;;;;5.72;3.50;;;;;;;;;;7368997;19;20081;-71
2023/04/29 11:13:38;;;;;;;5.10;2.97;;;;;;;;;;7365769;19;20361;-71
2023/04/29 11:16:08;;;;;;;7.97;3.08;;;;;;;;;;7389300;19;20013;-71
2023/04/29 11:18:35;;;;;;;5.30;3.10;;;;;;;;;;7368505;19;20037;-71
2023/04/29 11:21:03;;;;;;;6.22;2.72;;;;;;;;;;7366639;19;20090;-70
2023/04/29 11:23:29;;;;;;;5.78;3.55;;;;;;;;;;7366323;19;20027;-71
2023/04/29 11:25:55;;;;;;;5.70;3.03;;;;;;;;;;7366573;19;20006;-70
2023/04/29 11:28:21;;;;;;;5.22;2.50;;;;;;;;;;7388736;19;20006;-70
2023/04/29 11:30:48;;;;;;;5.53;3.10;;;;;;;;;;7368217;19;20337;-71
2023/04/29 11:33:14;;;;;;;7.18;3.03;;;;;;;;;;7373117;19;20074;-70
2023/04/29 11:35:40;;;;;;;4.90;3.17;;;;;;;;;;7375785;19;20594;-70
2023/04/29 11:38:06;;;;;;;6.95;2.90;;;;;;;;;;7373875;19;20019;-70
2023/04/29 11:40:32;;;;;;;5.55;2.97;;;;;;;;;;7370061;19;20037;-70
2023/04/29 11:42:57;;;;;;;4.60;2.85;;;;;;;;;;7395181;19;20065;-70
2023/04/29 11:45:23;;;;;;;5.20;2.78;;;;;;;;;;7372389;19;20010;-70
2023/04/29 11:47:48;;;;;;;5.20;2.67;;;;;;;;;;7373405;19;19995;-70
2023/04/29 11:50:17;;;;;;;5.15;2.97;;;;;;;;;;7373273;19;20037;-70
2023/04/29 11:52:45;;;;;;;5.07;2.60;;;;;;;;;;7372869;19;20133;-70
2023/04/29 11:55:11;;;;;;;4.78;2.70;;;;;;;;;;7393351;19;20372;-71
2023/04/29 11:57:38;;;;;;;6.82;2.88;;;;;;;;;;7368358;19;20074;-70
2023/04/29 12:00:03;;;;;;;4.95;2.70;;;;;;;;;;7371855;19;20069;-71
2023/04/29 12:02:30;;;;;;;5.00;2.65;;;;;;;;;;7370922;19;20019;-71
2023/04/29 12:04:56;;;;;;;7.18;3.22;;;;;;;;;;7370889;19;20019;-70
2023/04/29 12:07:22;;;;;;;6.78;3.60;;;;;;;;;;7390327;19;20018;-71
2023/04/29 12:09:48;;;;;;;8.52;5.15;;;;;;;;;;7372226;19;19994;-70
2023/04/29 12:12:13;;;;;;;6.07;3.10;;;;;;;;;;7372177;19;20465;-70
2023/04/29 12:14:40;;;;;;;5.93;3.00;;;;;;;;;;7370425;19;20491;-69
2023/04/29 12:17:07;;;;;;;6.20;2.88;;;;;;;;;;7370229;19;20002;-70
2023/04/29 12:19:33;;;;;;;7.13;3.25;;;;;;;;;;7373338;19;20002;-70
2023/04/29 12:22:01;;;;;;;5.20;2.97;;;;;;;;;;7391810;19;19999;-70
2023/04/29 12:24:26;;;;;;;4.70;2.75;;;;;;;;;;7373009;19;20006;-70
2023/04/29 12:26:54;;;;;;;5.15;2.92;;;;;;;;;;7372324;19;19998;-71
2023/04/29 12:29:22;;;;;;;5.53;3.28;;;;;;;;;;7374737;19;20002;-70
2023/04/29 12:31:48;;;;;;;5.22;3.22;;;;;;;;;;7371742;19;20006;-71
2023/04/29 12:34:13;;;;;;;7.13;3.60;;;;;;;;;;7394650;19;19995;-70
2023/04/29 12:36:43;;;;;;;4.53;2.85;;;;;;;;;;7370419;19;20321;-71
2023/04/29 12:39:09;;;;;;;8.57;3.20;;;;;;;;;;7371386;19;20006;-70
2023/04/29 12:41:41;;;;;;;4.47;2.97;;;;;;;;;;7372553;19;20003;-71
2023/04/29 12:44:07;;;;;;;4.57;2.60;;;;;;;;;;7370374;19;20082;-70
2023/04/29 12:46:39;;;;;;;4.95;2.70;;;;;;;;;;7369627;19;20002;-70
2023/04/29 12:49:05;;;;;;;5.43;2.78;;;;;;;;;;7391034;19;19995;-70
2023/04/29 12:51:35;;;;;;;4.43;2.90;;;;;;;;;;7369256;19;19999;-71
2023/04/29 12:54:02;;;;;;;3.95;2.55;;;;;;;;;;7367699;19;20003;-70
2023/04/29 12:56:28;;;;;;;5.88;2.75;;;;;;;;;;7367243;19;20480;-70
2023/04/29 12:58:54;;;;;;;4.68;2.67;;;;;;;;;;7370068;19;20065;-70
2023/04/29 13:01:19;;;;;;;4.22;2.58;;;;;;;;;;7395586;19;20003;-71
2023/04/29 13:03:44;;;;;;;4.35;2.42;;;;;;;;;;7369762;19;20006;-70
2023/04/29 13:06:10;;;;;;;4.35;2.80;;;;;;;;;;7369320;19;20536;-70
2023/04/29 13:08:36;;;;;;;3.42;2.10;;;;;;;;;;7370747;19;20002;-70
2023/04/29 13:11:01;;;;;;;3.65;2.13;;;;;;;;;;7371081;19;20480;-70
2023/04/29 13:13:27;;;;;;;5.78;2.95;;;;;;;;;;7371436;19;19994;-70
2023/04/29 13:15:53;;;;;;;5.97;3.60;;;;;;;;;;7390594;19;20581;-69
2023/04/29 13:18:18;;;;;;;7.03;2.40;;;;;;;;;;7368260;19;20002;-70
2023/04/29 13:20:43;;;;;;;3.42;1.98;;;;;;;;;;7369149;19;20353;-70
2023/04/29 13:23:11;;;;;;;3.70;2.40;;;;;;;;;;7368220;19;19999;-70
2023/04/29 13:25:36;;;;;;;4.15;2.50;;;;;;;;;;7369206;19;20019;-70
2023/04/29 13:28:01;;;;;;;4.28;2.20;;;;;;;;;;7388421;19;19994;-70
2023/04/29 13:30:27;;;;;;;4.82;2.60;;;;;;;;;;7368465;19;20076;-70
2023/04/29 13:32:52;;;;;;;4.80;2.40;;;;;;;;;;7368894;19;20012;-70
2023/04/29 13:35:17;;;;;;;3.88;2.63;;;;;;;;;;7369507;19;20009;-70
2023/04/29 13:37:43;;;;;;;5.30;2.63;;;;;;;;;;7368446;19;19984;-70
2023/04/29 13:40:09;;;;;;;4.75;3.08;;;;;;;;;;7390079;19;20483;-71
2023/04/29 13:42:35;;;;;;;4.45;2.85;;;;;;;;;;7369977;19;19998;-70
2023/04/29 13:45:01;;;;;;;3.85;2.60;;;;;;;;;;7373232;19;20027;-70
2023/04/29 13:47:26;;;;;;;6.32;2.90;;;;;;;;;;7374795;19;20486;-70
2023/04/29 13:49:51;;;;;;;4.85;3.00;;;;;;;;;;7373309;19;20500;-70
2023/04/29 13:52:17;;;;;;;6.13;2.85;;;;;;;;;;7395564;19;20015;-70
2023/04/29 13:54:42;;;;;;;7.40;3.40;;;;;;;;;;7371678;19;20002;-70
2023/04/29 13:57:07;;;;;;;5.30;2.80;;;;;;;;;;7369701;19;20003;-70
2023/04/29 13:59:35;;;;;;;4.78;2.72;;;;;;;;;;7369427;19;20026;-70
2023/04/29 14:02:01;;;;;;;4.10;2.63;;;;;;;;;;7367924;19;20464;-69
2023/04/29 14:04:27;;;;;;;3.92;2.67;;;;;;;;;;7366472;19;20015;-70
2023/04/29 14:06:53;;;;;;;5.07;3.03;;;;;;;;;;7391270;19;20006;-71
2023/04/29 14:09:19;;;;;;;5.70;3.00;;;;;;;;;;7367940;19;20457;-70
2023/04/29 14:11:45;;;;;;;6.28;3.22;;;;;;;;;;7367395;19;20058;-70
2023/04/29 14:14:10;;;;;;;6.00;3.40;;;;;;;;;;7367825;19;20069;-70
2023/04/29 14:16:36;;;;;;;7.00;3.58;;;;;;;;;;7367825;19;20426;-69
2023/04/29 14:19:01;;;;;;;5.63;3.75;;;;;;;;;;7389084;19;19998;-70
2023/04/29 14:21:26;;;;;;;5.30;3.67;;;;;;;;;;7368273;19;20027;-70
2023/04/29 14:23:52;;;;;;;6.97;4.10;;;;;;;;;;7369959;19;20009;-69
2023/04/29 14:26:17;;;;;;;5.82;3.72;;;;;;;;;;7367247;19;20009;-69
2023/04/29 14:28:42;;;;;;;6.18;3.67;;;;;;;;;;7368881;19;19992;-70
2023/04/29 14:31:08;;;;;;;5.45;3.22;;;;;;;;;;7388278;19;19999;-69
2023/04/29 14:33:33;;;;;;;5.20;3.38;;;;;;;;;;7366320;19;20002;-70
2023/04/29 14:36:02;;;;;;;5.10;3.10;;;;;;;;;;7366338;19;20009;-70
2023/04/29 14:38:27;;;;;;;5.45;3.22;;;;;;;;;;7367026;19;20479;-69